Latest Weather Observations for Canterbury

IDN60901

Issued at 2:01 pm EST Thursday 28 May 2020 (issued every 10 minutes, with the page automatically refreshed every 10 minutes)

About weather observations | Map of Sydney area stations | Latest observations for Sydney area | Other Formats
Station Details ID: 066194 Name: CANTERBURY RACECOURSE AWS Lat: -33.91 Lon: 151.11 Height: 3.0 m
Data from the previous 72 hours. | See also: Recent months at Canterbury
Date/Time
EST
Temp
°C
App
Temp
°C
Dew
Point
°C
Rel
Hum
%
Delta-T
°C
Wind Press
QNH
hPa
Press
MSL
hPa
Rain since
9am
mm
Dir  Spd
km/h
Gust
km/h
Spd
kts
Gust
kts
28/02:00pm 21.1 18.7 10.0 49 6.0 SW 13 22 7 12 - - 0.0
28/01:30pm 20.7 18.2 9.6 49 5.9 WSW 13 22 7 12 - - 0.0
28/01:00pm 20.9 19.6 11.3 54 5.3 WSW 9 15 5 8 - - 0.0
28/12:30pm 19.9 17.2 10.3 54 5.2 W 15 22 8 12 - - 0.0
28/12:00pm 19.5 17.1 10.2 55 5.0 WSW 13 22 7 12 - - 0.0
28/11:30am 18.7 15.8 9.8 56 4.7 W 15 20 8 11 - - 0.0
28/11:00am 18.2 15.9 10.6 61 4.1 W 13 19 7 10 - - 0.0
28/10:30am 17.4 15.3 9.8 61 4.0 WNW 11 19 6 10 - - 0.0
28/10:00am 16.7 14.7 10.3 66 3.4 WNW 11 17 6 9 - - 0.0
28/09:30am 15.1 13.6 10.7 75 2.3 W 9 15 5 8 - - 0.0
28/09:00am 13.4 12.4 11.1 86 1.2 W 7 11 4 6 - - 0.0
28/08:30am 12.3 11.7 12.3 100 0.0 SSW 7 17 4 9 - - 0.0
28/08:00am 11.2 10.4 11.2 100 0.0 SSE 6 9 3 5 - - 0.0
28/07:43am 10.8 10.7 10.8 100 0.0 SE 2 7 1 4 - - 0.0
28/07:30am 10.1 9.0 10.1 100 0.0 SE 6 11 3 6 - - 0.0
28/07:00am 8.2 7.8 8.1 99 0.0 CALM 0 0 0 0 - - 0.0
28/06:41am 9.5 8.6 9.4 99 0.0 SE 4 7 2 4 - - 0.0
28/06:40am 9.5 8.6 9.4 99 0.0 SE 4 7 2 4 - - 0.0
28/06:30am 9.0 8.0 8.9 99 0.0 SE 4 7 2 4 - - 0.0
28/06:13am 8.5 8.1 8.4 99 0.0 CALM 0 0 0 0 - - 0.0
28/06:12am 8.7 8.4 8.6 99 0.0 CALM 0 0 0 0 - - 0.0
28/06:00am 8.9 8.6 8.8 99 0.0 CALM 0 0 0 0 - - 0.0
28/05:30am 8.6 8.3 8.5 99 0.0 CALM 0 0 0 0 - - 0.0
28/05:00am 9.3 9.1 9.2 99 0.0 CALM 0 0 0 0 - - 0.0
28/04:30am 9.4 9.3 9.3 99 0.0 CALM 0 0 0 0 - - 0.0
28/04:00am 10.2 10.3 10.1 99 0.1 CALM 0 0 0 0 - - 0.0
28/03:30am 10.5 10.6 10.3 99 0.1 CALM 0 0 0 0 - - 0.0
28/03:23am 10.4 10.5 10.2 99 0.1 CALM 0 0 0 0 - - 0.0
28/03:06am 10.2 10.3 10.1 99 0.1 CALM 0 0 0 0 - - 0.0
28/03:00am 10.1 10.2 10.0 99 0.1 CALM 0 0 0 0 - - 0.0
28/02:30am 10.4 10.5 10.2 99 0.1 CALM 0 0 0 0 - - 0.0
28/02:00am 10.3 10.4 10.1 99 0.1 CALM 0 0 0 0 - - 0.0
28/01:50am 10.2 10.3 10.1 99 0.1 CALM 0 0 0 0 - - 0.0
28/01:30am 10.4 10.5 10.2 99 0.1 CALM 0 0 0 0 - - 0.0
28/01:00am 9.7 9.6 9.6 99 0.0 CALM 0 0 0 0 - - 0.0
28/12:30am 9.4 9.3 9.3 99 0.0 CALM 0 0 0 0 - - 0.0
28/12:00am 9.9 9.9 9.8 99 0.1 CALM 0 0 0 0 - - 0.0
 
Date/Time
EST
Temp
°C
App
Temp
°C
Dew
Point
°C
Rel
Hum
%
Delta-T
°C
Wind Press
QNH
hPa
Press
MSL
hPa
Rain since
9am
mm
Dir  Spd
km/h
Gust
km/h
Spd
kts
Gust
kts
27/11:30pm 9.8 9.8 9.7 99 0.0 CALM 0 0 0 0 - - 0.0
27/11:00pm 10.3 10.4 10.1 99 0.1 CALM 0 0 0 0 - - 0.0
27/10:30pm 10.3 10.4 10.1 99 0.1 CALM 0 0 0 0 - - 0.0
27/10:00pm 10.6 10.7 10.3 98 0.2 CALM 0 0 0 0 - - 0.0
27/09:30pm 11.2 11.5 10.9 98 0.2 CALM 0 0 0 0 - - 0.0
27/09:00pm 11.5 11.8 10.9 96 0.3 CALM 0 0 0 0 - - 0.0
27/08:52pm 11.5 11.8 11.0 97 0.3 CALM 0 0 0 0 - - 0.0
27/08:30pm 12.2 12.7 11.7 97 0.3 CALM 0 0 0 0 - - 0.0
27/08:26pm 12.2 12.7 11.7 97 0.3 CALM 0 0 0 0 - - 0.0
27/08:12pm 12.3 12.8 11.5 95 0.4 CALM 0 0 0 0 - - 0.0
27/08:00pm 12.6 13.1 11.7 94 0.5 CALM 0 0 0 0 - - 0.0
27/07:30pm 12.6 13.1 11.7 94 0.5 CALM 0 0 0 0 - - 0.0
27/07:00pm 12.5 12.9 11.1 91 0.7 CALM 0 0 0 0 - - 0.0
27/06:30pm 13.3 13.9 11.9 91 0.7 CALM 0 0 0 0 - - 0.0
27/06:00pm 13.8 14.3 11.7 87 1.1 CALM 0 0 0 0 - - 0.0
27/05:30pm 14.2 13.9 11.5 84 1.4 SE 4 7 2 4 - - 0.0
27/05:00pm 14.9 14.0 11.3 79 1.9 SE 7 11 4 6 - - 0.0
27/04:30pm 15.9 14.7 11.5 75 2.4 SE 9 11 5 6 - - 0.0
27/04:00pm 16.9 14.2 11.6 71 2.9 SE 17 22 9 12 - - 0.0
27/03:30pm 17.5 15.7 12.0 70 3.0 SE 13 19 7 10 - - 0.0
27/03:00pm 17.6 15.3 11.9 69 3.1 SE 15 24 8 13 - - 0.0
27/02:30pm 17.8 15.5 11.8 68 3.3 SE 15 22 8 12 - - 0.0
27/02:00pm 18.4 17.2 11.5 64 3.8 SE 9 15 5 8 - - 0.0
27/01:30pm 18.0 16.2 12.0 68 3.3 SSE 13 19 7 10 - - 0.0
27/01:00pm 17.7 16.4 12.4 71 2.9 ESE 11 17 6 9 - - 0.0
27/12:30pm 17.4 16.3 11.9 70 3.0 SSE 9 15 5 8 - - 0.0
27/12:00pm 17.9 16.6 12.4 70 3.0 SE 11 17 6 9 - - 0.0
27/11:30am 17.6 16.4 11.6 68 3.3 S 9 15 5 8 - - 0.0
27/11:00am 17.7 15.8 11.7 68 3.3 SSW 13 24 7 13 - - 0.0
27/10:30am 17.7 16.4 12.6 72 2.8 SSW 11 20 6 11 - - 0.0
27/10:00am 16.4 15.4 11.1 71 2.8 WSW 7 11 4 6 - - 0.0
27/09:30am 15.6 14.3 11.4 76 2.3 W 9 13 5 7 - - 0.0
27/09:00am 14.3 13.3 11.1 81 1.7 WNW 7 9 4 5 - - 0.4
27/08:30am 13.3 11.5 11.0 86 1.2 WSW 11 15 6 8 - - 0.4
27/08:00am 12.5 11.6 11.4 93 0.6 NNW 7 11 4 6 - - 0.4
27/07:30am 11.5 11.9 11.2 98 0.2 CALM 0 4 0 2 - - 0.4
27/07:00am 11.0 9.8 10.4 96 0.3 NNW 7 13 4 7 - - 0.4
27/06:30am 11.0 11.1 10.1 94 0.5 CALM 0 0 0 0 - - 0.4
27/06:00am 11.9 11.5 11.0 94 0.5 NNW 4 7 2 4 - - 0.4
27/05:30am 12.0 12.0 11.2 95 0.4 NNW 2 7 1 4 - - 0.4
27/05:00am 12.1 11.4 11.3 95 0.4 NNW 6 11 3 6 - - 0.4
27/04:30am 11.9 11.1 11.1 95 0.4 NNW 6 7 3 4 - - 0.4
27/04:00am 12.2 12.2 11.1 93 0.6 NNW 2 7 1 4 - - 0.4
27/03:30am 12.6 11.7 11.2 91 0.7 NNW 7 13 4 7 - - 0.4
27/03:00am 13.0 12.2 11.6 91 0.7 N 7 11 4 6 - - 0.4
27/02:30am 13.2 12.6 11.6 90 0.9 NNW 6 9 3 5 - - 0.4
27/02:00am 13.1 12.5 11.8 92 0.7 W 6 9 3 5 - - 0.4
27/01:30am 13.4 12.3 12.1 92 0.7 W 9 15 5 8 - - 0.4
27/01:00am 13.6 12.7 12.5 93 0.6 WSW 9 13 5 7 - - 0.4
27/12:30am 13.6 13.5 12.2 91 0.8 W 4 7 2 4 - - 0.4
27/12:00am 13.9 13.0 12.5 91 0.8 WSW 9 13 5 7 - - 0.4
 
Date/Time
EST
Temp
°C
App
Temp
°C
Dew
Point
°C
Rel
Hum
%
Delta-T
°C
Wind Press
QNH
hPa
Press
MSL
hPa
Rain since
9am
mm
Dir  Spd
km/h
Gust
km/h
Spd
kts
Gust
kts
26/11:30pm 12.9 13.4 11.6 92 0.7 CALM 0 0 0 0 - - 0.4
26/11:00pm 13.2 13.0 11.9 92 0.7 WSW 4 7 2 4 - - 0.4
26/10:30pm 12.6 12.3 11.3 92 0.7 WSW 4 11 2 6 - - 0.4
26/10:00pm 13.3 13.3 11.2 87 1.1 WSW 2 6 1 3 - - 0.4
26/09:30pm 14.2 13.7 12.1 87 1.1 WSW 6 9 3 5 - - 0.4
26/09:00pm 14.2 13.9 11.5 84 1.4 WSW 4 11 2 6 - - 0.4
26/08:30pm 14.7 14.1 11.8 83 1.6 WSW 6 11 3 6 - - 0.4
26/08:00pm 15.1 15.3 11.9 81 1.7 SW 2 9 1 5 - - 0.4
26/07:30pm 15.3 14.7 11.7 79 1.9 SW 6 9 3 5 - - 0.4
26/07:00pm 15.5 14.2 11.1 75 2.3 SSW 9 13 5 7 - - 0.4
26/06:30pm 16.0 14.6 11.0 72 2.7 S 9 13 5 7 - - 0.4
26/06:00pm 15.8 14.2 11.6 76 2.3 S 11 19 6 10 - - 0.4
26/05:30pm 16.5 15.1 10.8 69 3.0 S 9 17 5 9 - - 0.4
26/05:00pm 17.0 15.1 10.4 65 3.5 S 11 20 6 11 - - 0.4
26/04:30pm 17.1 14.4 10.5 65 3.5 SSE 15 22 8 12 - - 0.4
26/04:00pm 16.9 15.9 12.2 74 2.6 S 9 15 5 8 - - 0.4
26/03:30pm 16.4 13.7 11.8 74 2.5 S 17 28 9 15 - - 0.4
26/03:00pm 18.2 15.1 10.3 60 4.2 SSE 17 26 9 14 - - 0.4
26/02:30pm 18.2 14.4 9.0 55 4.8 SSE 19 33 10 18 - - 0.4
26/02:00pm 18.4 14.3 10.0 58 4.5 SSE 22 35 12 19 - - 0.4
26/01:30pm 18.5 14.2 9.3 55 4.8 SSE 22 37 12 20 - - 0.4
26/01:00pm 18.5 14.9 9.8 57 4.6 SE 19 33 10 18 - - 0.4
26/12:30pm 18.7 14.5 9.8 56 4.7 SE 22 33 12 18 - - 0.4
26/12:00pm 18.6 14.4 11.2 62 4.0 SE 24 44 13 24 - - 0.4
26/11:30am 18.7 15.7 11.8 64 3.8 SSE 19 30 10 16 - - 0.4
26/11:00am 17.5 16.9 14.6 83 1.7 S 11 17 6 9 - - 0.4
26/10:30am 17.2 16.4 13.9 81 1.9 SSW 11 19 6 10 - - 0.4
26/10:00am 17.2 17.2 15.2 88 1.2 SSE 9 17 5 9 - - 0.4
26/09:30am 15.8 15.6 14.8 94 0.6 SSW 9 15 5 8 - - 0.4
26/09:04am 15.1 13.9 14.1 94 0.6 SSW 13 22 7 12 - - 0.0
26/09:00am 15.1 13.9 14.1 94 0.6 SSW 13 22 7 12 - - 19.2
26/08:53am 15.1 13.9 14.1 94 0.6 SSW 13 22 7 12 - - 19.2
26/08:30am 14.6 13.7 13.8 95 0.4 SW 11 17 6 9 - - 19.2
26/08:27am 14.4 13.5 13.6 95 0.4 SW 11 17 6 9 - - 19.2
26/08:14am 14.3 13.6 13.3 94 0.6 SSW 9 15 5 8 - - 19.2
26/08:09am 14.3 13.6 13.3 94 0.6 SSW 9 15 5 8 - - 19.0
26/08:00am 14.1 13.0 13.1 94 0.6 SSW 11 17 6 9 - - 19.0
26/07:51am 14.0 12.8 12.9 93 0.6 SSW 11 22 6 12 - - 18.8
26/07:30am 13.7 12.9 12.8 94 0.5 SW 9 17 5 9 - - 18.6
26/07:01am 13.6 12.7 12.7 94 0.5 SSW 9 17 5 9 - - 18.6
26/07:00am 13.6 12.7 12.7 94 0.5 SSW 9 17 5 9 - - 18.6
26/06:47am 13.7 12.0 12.6 93 0.6 SSW 13 20 7 11 - - 18.6
26/06:37am 13.7 12.0 12.4 92 0.7 SSW 13 22 7 12 - - 18.4
26/06:30am 13.7 12.4 12.4 92 0.7 SSW 11 20 6 11 - - 18.4
26/06:22am 13.9 11.8 12.5 91 0.8 SSW 15 24 8 13 - - 18.4
26/06:00am 13.8 12.5 12.5 92 0.7 SSW 11 17 6 9 - - 18.2
26/05:30am 13.9 12.3 12.8 93 0.6 SSW 13 24 7 13 - - 18.0
26/05:00am 14.1 12.0 12.5 90 0.9 SSW 15 32 8 17 - - 16.8
26/04:56am 14.2 12.1 12.4 89 1.0 SSW 15 32 8 17 - - 16.8
26/04:30am 14.2 11.6 12.1 87 1.1 SSW 17 30 9 16 - - 16.4
26/04:00am 14.3 11.8 12.2 87 1.1 SSW 17 26 9 14 - - 16.4
26/03:30am 14.2 11.6 12.1 87 1.1 SSW 17 32 9 17 - - 16.4
26/03:00am 13.8 11.1 11.8 88 1.1 SSW 17 28 9 15 - - 16.4
26/02:30am 13.9 11.2 11.8 87 1.1 SSW 17 24 9 13 - - 16.4
26/02:00am 13.8 11.2 12.0 89 1.0 SSW 17 32 9 17 - - 16.4
26/01:30am 13.7 11.1 12.1 90 0.9 SSW 17 33 9 18 - - 16.4
26/01:00am 13.6 11.9 12.3 92 0.7 SSW 13 20 7 11 - - 16.4
26/12:30am 13.5 10.6 12.2 92 0.7 SSW 19 30 10 16 - - 16.2
26/12:00am 13.5 10.0 12.2 92 0.7 SSW 22 39 12 21 - - 16.2
 
Date/Time
EST
Temp
°C
App
Temp
°C
Dew
Point
°C
Rel
Hum
%
Delta-T
°C
Wind Press
QNH
hPa
Press
MSL
hPa
Rain since
9am
mm
Dir  Spd
km/h
Gust
km/h
Spd
kts
Gust
kts
25/11:30pm 13.6 11.2 12.5 93 0.6 SSW 17 30 9 16 - - 16.2
25/11:22pm 13.6 11.2 12.7 94 0.5 SSW 17 24 9 13 - - 16.2
25/11:09pm 13.6 10.6 12.7 94 0.5 SSW 20 39 11 21 - - 16.0
25/11:00pm 13.6 10.6 12.5 93 0.6 SSW 20 37 11 20 - - 15.6
25/10:32pm 13.6 10.3 12.7 94 0.5 SSW 22 43 12 23 - - 15.6
25/10:30pm 13.6 10.7 12.8 95 0.4 SSW 20 43 11 23 - - 15.6
25/10:10pm 13.6 11.0 13.1 97 0.3 SSW 19 39 10 21 - - 14.8
25/10:04pm 13.7 11.1 13.2 97 0.3 SSW 19 39 10 21 - - 14.4
25/10:00pm 13.7 11.9 13.2 97 0.3 SSW 15 28 8 15 - - 14.2
25/09:51pm 13.7 11.1 13.2 97 0.3 SSW 19 28 10 15 - - 14.2
25/09:49pm 13.8 11.2 13.3 97 0.3 SSW 19 32 10 17 - - 14.2
25/09:30pm 13.7 11.1 13.2 97 0.3 SSW 19 30 10 16 - - 13.6
25/09:00pm 13.8 11.2 13.2 96 0.3 SSW 19 35 10 19 - - 12.4
25/08:45pm 13.8 11.5 13.0 95 0.4 S 17 32 9 17 - - 11.6
25/08:30pm 13.8 11.1 13.0 95 0.4 SSW 19 35 10 19 - - 10.8
25/08:29pm 13.8 10.9 13.0 95 0.4 SSW 20 35 11 19 - - 10.8
25/08:00pm 13.8 11.1 12.9 94 0.5 SSW 19 30 10 16 - - 9.0
25/07:52pm 13.8 11.1 12.9 94 0.5 SSW 19 35 10 19 - - 8.6
25/07:38pm 13.8 10.9 12.9 94 0.5 SSW 20 37 11 20 - - 8.0
25/07:30pm 13.8 11.5 12.9 94 0.5 SSW 17 35 9 19 - - 7.6
25/07:00pm 13.9 11.1 12.6 92 0.7 SSW 19 32 10 17 - - 5.2
25/06:59pm 13.9 11.1 12.6 92 0.7 SSW 19 32 10 17 - - 5.2
25/06:30pm 13.9 10.9 12.6 92 0.7 SSW 20 39 11 21 - - 4.0
25/06:00pm 14.1 10.7 12.5 90 0.9 SSW 22 41 12 22 - - 3.0
25/05:30pm 14.1 10.3 12.5 90 0.9 SSW 24 37 13 20 - - 2.4
25/05:00pm 14.1 10.6 12.1 88 1.1 SSW 22 35 12 19 - - 1.2
25/04:30pm 14.7 10.3 11.7 82 1.6 SSW 26 43 14 23 - - 0.2
25/04:00pm 15.8 10.3 10.6 71 2.8 SSW 30 50 16 27 - - 0.0
25/03:44pm 15.7 10.6 10.7 72 2.7 SSW 28 46 15 25 - - 0.0
25/03:30pm 15.4 11.1 10.8 74 2.4 SSW 24 37 13 20 - - 0.0
25/03:11pm 16.1 10.9 10.2 68 3.1 SSW 28 52 15 28 - - 0.0
25/03:00pm 16.3 12.2 10.2 67 3.2 SSW 22 39 12 21 - - 0.0
25/02:38pm 16.4 11.1 10.0 66 3.4 SSW 28 52 15 28 - - 0.0
25/02:30pm 16.5 12.3 9.9 65 3.5 SSW 22 39 12 21 - - 0.0
25/02:20pm 16.5 11.2 9.9 65 3.5 SSW 28 48 15 26 - - 0.0

Latest Capital City Observations: Canberra | Sydney | Melbourne | Brisbane | Adelaide | Perth | Hobart | Darwin

Other formats

Comma delimited format used in spreadsheet applications
http://www.bom.gov.au/fwo/IDN60901/IDN60901.94766.axf

JavaScript Object Notation format (JSON) in row-major order
http://www.bom.gov.au/fwo/IDN60901/IDN60901.94766.json

Data quality

Most of these data are generated automatically and are frequently updated. Quality checks on data are not normally performed. It is possible for incorrect values to appear. Refer to information at About Latest Weather Observations and please check the disclaimer before using these data.